Terminal Aerodrome Forecast
Issued by NWS Pocatello, ID

Home | Current Version | Previous Version | Text Only | Print | Product List | Glossary On
Versions: 1 2 3 4 5 6 7 8 9 10 11 12 13 14 15 16 17 18 19 20 21 22 23 24 25 26 27
000
FTUS45 KPIH 171900 AAA
TAFPIH
TAF AMD
KPIH 171959Z 1720/1818 VRB05KT P6SM SCT012 SCT180
      TEMPO 1720/1722 BKN012
     FM180500 VRB03KT 1/2SM FZFG VV002
     FM181700 21006KT 5SM BR SCT007 BKN050=

USA.gov is the U.S. government's official web portal to all federal, state and local government web resources and services.